sensor_id;sensor_type;location;lat;lon;timestamp;temperature;humidity
28823;DHT22;15961;54.678;9.110;2022-10-28T00:00:16;13.20;99.90
28823;DHT22;15961;54.678;9.110;2022-10-28T00:02:42;13.10;99.90
28823;DHT22;15961;54.678;9.110;2022-10-28T00:05:08;13.10;99.90
28823;DHT22;15961;54.678;9.110;2022-10-28T00:07:33;13.00;99.90
28823;DHT22;15961;54.678;9.110;2022-10-28T00:09:59;13.00;99.90
28823;DHT22;15961;54.678;9.110;2022-10-28T00:12:24;13.00;99.90
28823;DHT22;15961;54.678;9.110;2022-10-28T00:14:50;12.90;99.90
28823;DHT22;15961;54.678;9.110;2022-10-28T00:17:16;12.80;99.90
28823;DHT22;15961;54.678;9.110;2022-10-28T00:19:41;12.80;99.90
28823;DHT22;15961;54.678;9.110;2022-10-28T00:22:07;12.70;99.90
28823;DHT22;15961;54.678;9.110;2022-10-28T00:24:32;12.80;99.90
28823;DHT22;15961;54.678;9.110;2022-10-28T00:26:58;12.70;99.90
28823;DHT22;15961;54.678;9.110;2022-10-28T00:29:24;12.70;99.90
28823;DHT22;15961;54.678;9.110;2022-10-28T00:31:49;12.70;99.90
28823;DHT22;15961;54.678;9.110;2022-10-28T00:34:18;12.70;99.90
28823;DHT22;15961;54.678;9.110;2022-10-28T00:36:46;12.70;99.90
28823;DHT22;15961;54.678;9.110;2022-10-28T00:39:22;12.60;99.90
28823;DHT22;15961;54.678;9.110;2022-10-28T00:41:52;12.70;99.90
28823;DHT22;15961;54.678;9.110;2022-10-28T00:44:58;12.70;99.90
28823;DHT22;15961;54.678;9.110;2022-10-28T00:50:20;12.60;99.90
28823;DHT22;15961;54.678;9.110;2022-10-28T00:52:52;12.60;99.90
28823;DHT22;15961;54.678;9.110;2022-10-28T00:55:19;12.60;99.90
28823;DHT22;15961;54.678;9.110;2022-10-28T00:57:45;12.50;99.90
28823;DHT22;15961;54.678;9.110;2022-10-28T01:00:12;12.70;99.90
28823;DHT22;15961;54.678;9.110;2022-10-28T01:02:46;12.70;99.90
28823;DHT22;15961;54.678;9.110;2022-10-28T01:05:15;12.60;99.90
28823;DHT22;15961;54.678;9.110;2022-10-28T01:07:42;12.60;99.90
28823;DHT22;15961;54.678;9.110;2022-10-28T01:10:08;12.60;99.90
28823;DHT22;15961;54.678;9.110;2022-10-28T01:12:47;12.50;99.90
28823;DHT22;15961;54.678;9.110;2022-10-28T01:15:32;12.40;99.90
28823;DHT22;15961;54.678;9.110;2022-10-28T01:18:16;12.30;99.90
28823;DHT22;15961;54.678;9.110;2022-10-28T01:23:40;12.20;99.90
28823;DHT22;15961;54.678;9.110;2022-10-28T01:31:53;12.00;99.90
28823;DHT22;15961;54.678;9.110;2022-10-28T01:37:25;12.10;99.90
28823;DHT22;15961;54.678;9.110;2022-10-28T01:45:51;12.10;99.90
28823;DHT22;15961;54.678;9.110;2022-10-28T01:48:21;12.20;99.90
28823;DHT22;15961;54.678;9.110;2022-10-28T01:51:02;12.20;99.90
28823;DHT22;15961;54.678;9.110;2022-10-28T01:53:33;12.40;99.90
28823;DHT22;15961;54.678;9.110;2022-10-28T01:56:05;12.30;99.90
28823;DHT22;15961;54.678;9.110;2022-10-28T01:58:33;12.30;99.90
28823;DHT22;15961;54.678;9.110;2022-10-28T02:01:04;12.20;99.90
28823;DHT22;15961;54.678;9.110;2022-10-28T02:03:30;12.20;99.90
28823;DHT22;15961;54.678;9.110;2022-10-28T02:05:58;12.10;99.90
28823;DHT22;15961;54.678;9.110;2022-10-28T02:16:50;12.20;99.90
28823;DHT22;15961;54.678;9.110;2022-10-28T02:19:38;12.20;99.90
28823;DHT22;15961;54.678;9.110;2022-10-28T02:22:26;12.20;99.90
28823;DHT22;15961;54.678;9.110;2022-10-28T02:25:14;12.20;99.90
28823;DHT22;15961;54.678;9.110;2022-10-28T02:28:04;12.20;99.90
28823;DHT22;15961;54.678;9.110;2022-10-28T02:30:50;12.10;99.90
28823;DHT22;15961;54.678;9.110;2022-10-28T02:33:20;12.00;99.90
28823;DHT22;15961;54.678;9.110;2022-10-28T02:35:57;11.90;99.90
28823;DHT22;15961;54.678;9.110;2022-10-28T02:38:32;11.90;99.90
28823;DHT22;15961;54.678;9.110;2022-10-28T02:41:05;12.00;99.90
28823;DHT22;15961;54.678;9.110;2022-10-28T02:43:34;12.00;99.90
28823;DHT22;15961;54.678;9.110;2022-10-28T02:46:03;12.00;99.90
28823;DHT22;15961;54.678;9.110;2022-10-28T02:48:44;11.90;99.90
28823;DHT22;15961;54.678;9.110;2022-10-28T02:51:16;11.80;99.90
28823;DHT22;15961;54.678;9.110;2022-10-28T02:54:05;11.70;99.90
28823;DHT22;15961;54.678;9.110;2022-10-28T02:56:36;11.80;99.90
28823;DHT22;15961;54.678;9.110;2022-10-28T02:59:08;11.80;99.90
28823;DHT22;15961;54.678;9.110;2022-10-28T03:01:34;11.90;99.90
28823;DHT22;15961;54.678;9.110;2022-10-28T03:03:59;12.00;99.90
28823;DHT22;15961;54.678;9.110;2022-10-28T03:06:24;12.00;99.90
28823;DHT22;15961;54.678;9.110;2022-10-28T03:08:50;11.90;99.90
28823;DHT22;15961;54.678;9.110;2022-10-28T03:11:16;11.90;99.90
28823;DHT22;15961;54.678;9.110;2022-10-28T03:13:43;11.90;99.90
28823;DHT22;15961;54.678;9.110;2022-10-28T03:16:09;11.90;99.90
28823;DHT22;15961;54.678;9.110;2022-10-28T03:18:34;12.00;99.90
28823;DHT22;15961;54.678;9.110;2022-10-28T03:21:00;12.10;99.90
28823;DHT22;15961;54.678;9.110;2022-10-28T03:23:25;12.20;99.90
28823;DHT22;15961;54.678;9.110;2022-10-28T03:25:51;12.20;99.90
28823;DHT22;15961;54.678;9.110;2022-10-28T03:28:16;12.20;99.90
28823;DHT22;15961;54.678;9.110;2022-10-28T03:30:42;12.20;99.90
28823;DHT22;15961;54.678;9.110;2022-10-28T03:33:07;12.20;99.90
28823;DHT22;15961;54.678;9.110;2022-10-28T03:35:33;12.30;99.90
28823;DHT22;15961;54.678;9.110;2022-10-28T03:37:58;12.30;99.90
28823;DHT22;15961;54.678;9.110;2022-10-28T03:40:24;12.20;99.90
28823;DHT22;15961;54.678;9.110;2022-10-28T03:42:49;12.30;99.90
28823;DHT22;15961;54.678;9.110;2022-10-28T03:45:15;12.20;99.90
28823;DHT22;15961;54.678;9.110;2022-10-28T03:47:40;12.20;99.90
28823;DHT22;15961;54.678;9.110;2022-10-28T03:50:06;12.20;99.90
28823;DHT22;15961;54.678;9.110;2022-10-28T03:52:32;12.20;99.90
28823;DHT22;15961;54.678;9.110;2022-10-28T03:54:57;12.30;99.90
28823;DHT22;15961;54.678;9.110;2022-10-28T03:57:23;12.40;99.90
28823;DHT22;15961;54.678;9.110;2022-10-28T03:59:49;12.40;99.90
28823;DHT22;15961;54.678;9.110;2022-10-28T04:02:14;12.50;99.90
28823;DHT22;15961;54.678;9.110;2022-10-28T04:04:40;12.50;99.90
28823;DHT22;15961;54.678;9.110;2022-10-28T04:07:06;12.60;99.90
28823;DHT22;15961;54.678;9.110;2022-10-28T04:09:31;12.50;99.90
28823;DHT22;15961;54.678;9.110;2022-10-28T04:11:57;12.50;99.90
28823;DHT22;15961;54.678;9.110;2022-10-28T04:14:22;12.60;99.90
28823;DHT22;15961;54.678;9.110;2022-10-28T04:16:48;12.60;99.90
28823;DHT22;15961;54.678;9.110;2022-10-28T04:19:13;12.60;99.90
28823;DHT22;15961;54.678;9.110;2022-10-28T04:21:39;12.60;99.90
28823;DHT22;15961;54.678;9.110;2022-10-28T04:24:04;12.70;99.90
28823;DHT22;15961;54.678;9.110;2022-10-28T04:26:30;12.70;99.90
28823;DHT22;15961;54.678;9.110;2022-10-28T04:28:56;12.70;99.90
28823;DHT22;15961;54.678;9.110;2022-10-28T04:31:22;12.70;99.90
28823;DHT22;15961;54.678;9.110;2022-10-28T04:33:47;12.70;99.90
28823;DHT22;15961;54.678;9.110;2022-10-28T04:36:13;12.70;99.90
28823;DHT22;15961;54.678;9.110;2022-10-28T04:38:38;12.70;99.90
28823;DHT22;15961;54.678;9.110;2022-10-28T04:41:04;12.70;99.90
28823;DHT22;15961;54.678;9.110;2022-10-28T04:43:29;12.80;99.90
28823;DHT22;15961;54.678;9.110;2022-10-28T04:45:55;12.80;99.90
28823;DHT22;15961;54.678;9.110;2022-10-28T04:48:20;12.70;99.90
28823;DHT22;15961;54.678;9.110;2022-10-28T04:50:46;12.70;99.90
28823;DHT22;15961;54.678;9.110;2022-10-28T04:53:12;12.70;99.90
28823;DHT22;15961;54.678;9.110;2022-10-28T04:55:37;12.70;99.90
28823;DHT22;15961;54.678;9.110;2022-10-28T04:58:03;12.70;99.90
28823;DHT22;15961;54.678;9.110;2022-10-28T05:00:29;12.70;99.90
28823;DHT22;15961;54.678;9.110;2022-10-28T05:02:55;12.70;99.90
28823;DHT22;15961;54.678;9.110;2022-10-28T05:05:21;12.70;99.90
28823;DHT22;15961;54.678;9.110;2022-10-28T05:07:46;12.70;99.90
28823;DHT22;15961;54.678;9.110;2022-10-28T05:10:12;12.70;99.90
28823;DHT22;15961;54.678;9.110;2022-10-28T05:12:44;12.70;99.90
28823;DHT22;15961;54.678;9.110;2022-10-28T05:15:11;12.70;99.90
28823;DHT22;15961;54.678;9.110;2022-10-28T05:17:41;12.80;99.90
28823;DHT22;15961;54.678;9.110;2022-10-28T05:20:08;12.80;99.90
28823;DHT22;15961;54.678;9.110;2022-10-28T05:22:34;12.70;99.90
28823;DHT22;15961;54.678;9.110;2022-10-28T05:25:00;12.80;99.90
28823;DHT22;15961;54.678;9.110;2022-10-28T05:27:25;12.80;99.90
28823;DHT22;15961;54.678;9.110;2022-10-28T05:29:51;12.80;99.90
28823;DHT22;15961;54.678;9.110;2022-10-28T05:32:16;12.90;99.90
28823;DHT22;15961;54.678;9.110;2022-10-28T05:34:41;12.90;99.90
28823;DHT22;15961;54.678;9.110;2022-10-28T05:37:07;13.00;99.90
28823;DHT22;15961;54.678;9.110;2022-10-28T05:39:32;13.00;99.90
28823;DHT22;15961;54.678;9.110;2022-10-28T05:41:58;13.00;99.90
28823;DHT22;15961;54.678;9.110;2022-10-28T05:44:23;12.90;99.90
28823;DHT22;15961;54.678;9.110;2022-10-28T05:46:49;12.90;99.90
28823;DHT22;15961;54.678;9.110;2022-10-28T05:49:14;13.00;99.90
28823;DHT22;15961;54.678;9.110;2022-10-28T05:51:45;13.00;99.90
28823;DHT22;15961;54.678;9.110;2022-10-28T05:54:10;13.00;99.90
28823;DHT22;15961;54.678;9.110;2022-10-28T05:56:36;12.90;99.90
28823;DHT22;15961;54.678;9.110;2022-10-28T05:59:01;12.90;99.90
28823;DHT22;15961;54.678;9.110;2022-10-28T06:01:27;12.90;99.90
28823;DHT22;15961;54.678;9.110;2022-10-28T06:03:52;12.80;99.90
28823;DHT22;15961;54.678;9.110;2022-10-28T06:06:18;12.80;99.90
28823;DHT22;15961;54.678;9.110;2022-10-28T06:08:44;12.80;99.90
28823;DHT22;15961;54.678;9.110;2022-10-28T06:11:10;12.90;99.90
28823;DHT22;15961;54.678;9.110;2022-10-28T06:13:35;12.80;99.90
28823;DHT22;15961;54.678;9.110;2022-10-28T06:16:04;12.80;99.90
28823;DHT22;15961;54.678;9.110;2022-10-28T06:18:29;12.80;99.90
28823;DHT22;15961;54.678;9.110;2022-10-28T06:20:58;12.70;99.90
28823;DHT22;15961;54.678;9.110;2022-10-28T06:23:25;12.80;99.90
28823;DHT22;15961;54.678;9.110;2022-10-28T06:25:57;12.80;99.90
28823;DHT22;15961;54.678;9.110;2022-10-28T06:28:26;12.80;99.90
28823;DHT22;15961;54.678;9.110;2022-10-28T06:30:51;12.80;99.90
28823;DHT22;15961;54.678;9.110;2022-10-28T06:33:17;12.80;99.90
28823;DHT22;15961;54.678;9.110;2022-10-28T06:35:43;12.80;99.90
28823;DHT22;15961;54.678;9.110;2022-10-28T06:38:08;12.80;99.90
28823;DHT22;15961;54.678;9.110;2022-10-28T06:40:34;12.80;99.90
28823;DHT22;15961;54.678;9.110;2022-10-28T06:43:01;12.80;99.90
28823;DHT22;15961;54.678;9.110;2022-10-28T06:45:29;12.90;99.90
28823;DHT22;15961;54.678;9.110;2022-10-28T06:47:56;12.90;99.90
28823;DHT22;15961;54.678;9.110;2022-10-28T06:50:22;12.90;99.90
28823;DHT22;15961;54.678;9.110;2022-10-28T06:52:48;12.90;99.90
28823;DHT22;15961;54.678;9.110;2022-10-28T06:55:13;12.90;99.90
28823;DHT22;15961;54.678;9.110;2022-10-28T06:57:39;12.90;99.90
28823;DHT22;15961;54.678;9.110;2022-10-28T07:00:05;12.90;99.90
28823;DHT22;15961;54.678;9.110;2022-10-28T07:02:30;13.00;99.90
28823;DHT22;15961;54.678;9.110;2022-10-28T07:04:56;13.00;99.90
28823;DHT22;15961;54.678;9.110;2022-10-28T07:07:21;13.00;99.90
28823;DHT22;15961;54.678;9.110;2022-10-28T07:09:47;12.90;99.90
28823;DHT22;15961;54.678;9.110;2022-10-28T07:12:12;13.00;99.90
28823;DHT22;15961;54.678;9.110;2022-10-28T07:14:38;12.90;99.90
28823;DHT22;15961;54.678;9.110;2022-10-28T07:17:03;12.90;99.90
28823;DHT22;15961;54.678;9.110;2022-10-28T07:19:29;12.90;99.90
28823;DHT22;15961;54.678;9.110;2022-10-28T07:21:54;13.10;99.90
28823;DHT22;15961;54.678;9.110;2022-10-28T07:24:20;13.20;99.90
28823;DHT22;15961;54.678;9.110;2022-10-28T07:26:47;13.20;99.90
28823;DHT22;15961;54.678;9.110;2022-10-28T07:29:14;13.30;99.90
28823;DHT22;15961;54.678;9.110;2022-10-28T07:31:39;13.30;99.90
28823;DHT22;15961;54.678;9.110;2022-10-28T07:34:05;13.40;99.90
28823;DHT22;15961;54.678;9.110;2022-10-28T07:36:30;13.50;99.90
28823;DHT22;15961;54.678;9.110;2022-10-28T07:38:56;13.60;99.90
28823;DHT22;15961;54.678;9.110;2022-10-28T07:41:22;13.70;99.90
28823;DHT22;15961;54.678;9.110;2022-10-28T07:43:48;13.80;99.90
28823;DHT22;15961;54.678;9.110;2022-10-28T07:46:14;13.90;99.90
28823;DHT22;15961;54.678;9.110;2022-10-28T07:48:39;14.00;99.90
28823;DHT22;15961;54.678;9.110;2022-10-28T07:51:07;14.10;99.90
28823;DHT22;15961;54.678;9.110;2022-10-28T07:53:33;14.20;99.90
28823;DHT22;15961;54.678;9.110;2022-10-28T07:56:01;14.30;99.90
28823;DHT22;15961;54.678;9.110;2022-10-28T07:58:27;14.30;99.90
28823;DHT22;15961;54.678;9.110;2022-10-28T08:00:53;14.30;99.90
28823;DHT22;15961;54.678;9.110;2022-10-28T08:03:19;14.40;99.90
28823;DHT22;15961;54.678;9.110;2022-10-28T08:05:45;14.40;99.90
28823;DHT22;15961;54.678;9.110;2022-10-28T08:08:10;14.50;99.90
28823;DHT22;15961;54.678;9.110;2022-10-28T08:10:36;14.50;99.90
28823;DHT22;15961;54.678;9.110;2022-10-28T08:13:01;14.60;99.90
28823;DHT22;15961;54.678;9.110;2022-10-28T08:15:27;14.60;99.90
28823;DHT22;15961;54.678;9.110;2022-10-28T08:17:54;14.80;99.90
28823;DHT22;15961;54.678;9.110;2022-10-28T08:20:20;14.90;99.90
28823;DHT22;15961;54.678;9.110;2022-10-28T08:22:45;15.10;99.90
28823;DHT22;15961;54.678;9.110;2022-10-28T08:25:11;15.20;99.90
28823;DHT22;15961;54.678;9.110;2022-10-28T08:27:36;15.30;99.90
28823;DHT22;15961;54.678;9.110;2022-10-28T08:30:03;15.40;99.90
28823;DHT22;15961;54.678;9.110;2022-10-28T08:32:29;15.50;99.90
28823;DHT22;15961;54.678;9.110;2022-10-28T08:34:54;15.50;99.90
28823;DHT22;15961;54.678;9.110;2022-10-28T08:37:20;15.60;99.90
28823;DHT22;15961;54.678;9.110;2022-10-28T08:39:45;15.60;99.90
28823;DHT22;15961;54.678;9.110;2022-10-28T08:42:33;15.40;99.90
28823;DHT22;15961;54.678;9.110;2022-10-28T08:45:43;15.30;99.90
28823;DHT22;15961;54.678;9.110;2022-10-28T08:48:32;15.30;99.90
28823;DHT22;15961;54.678;9.110;2022-10-28T08:51:08;15.40;99.90
28823;DHT22;15961;54.678;9.110;2022-10-28T08:53:42;15.50;99.90
28823;DHT22;15961;54.678;9.110;2022-10-28T08:56:13;15.70;99.90
28823;DHT22;15961;54.678;9.110;2022-10-28T08:58:42;15.90;99.90
28823;DHT22;15961;54.678;9.110;2022-10-28T09:01:15;16.00;99.90
28823;DHT22;15961;54.678;9.110;2022-10-28T09:03:42;16.20;99.90
28823;DHT22;15961;54.678;9.110;2022-10-28T09:06:09;16.30;99.90
28823;DHT22;15961;54.678;9.110;2022-10-28T09:08:39;16.30;99.90
28823;DHT22;15961;54.678;9.110;2022-10-28T09:11:44;16.40;99.90
28823;DHT22;15961;54.678;9.110;2022-10-28T09:17:06;16.50;99.90
28823;DHT22;15961;54.678;9.110;2022-10-28T09:20:00;16.70;99.90
28823;DHT22;15961;54.678;9.110;2022-10-28T09:22:34;16.70;99.90
28823;DHT22;15961;54.678;9.110;2022-10-28T09:25:16;16.90;99.90
28823;DHT22;15961;54.678;9.110;2022-10-28T09:31:09;16.90;99.90
28823;DHT22;15961;54.678;9.110;2022-10-28T09:33:57;17.00;99.90
28823;DHT22;15961;54.678;9.110;2022-10-28T09:36:40;17.10;99.90
28823;DHT22;15961;54.678;9.110;2022-10-28T09:39:17;17.20;99.90
28823;DHT22;15961;54.678;9.110;2022-10-28T09:41:45;17.40;99.90
28823;DHT22;15961;54.678;9.110;2022-10-28T09:44:17;17.50;99.90
28823;DHT22;15961;54.678;9.110;2022-10-28T09:46:47;17.50;99.90
28823;DHT22;15961;54.678;9.110;2022-10-28T09:49:21;17.70;99.90
28823;DHT22;15961;54.678;9.110;2022-10-28T09:52:04;17.80;99.90
28823;DHT22;15961;54.678;9.110;2022-10-28T09:54:39;17.90;99.90
28823;DHT22;15961;54.678;9.110;2022-10-28T09:57:06;17.90;99.90
28823;DHT22;15961;54.678;9.110;2022-10-28T09:59:33;18.00;99.90
28823;DHT22;15961;54.678;9.110;2022-10-28T10:01:59;18.20;99.90
28823;DHT22;15961;54.678;9.110;2022-10-28T10:04:26;18.20;99.90
28823;DHT22;15961;54.678;9.110;2022-10-28T10:07:07;18.20;99.90
28823;DHT22;15961;54.678;9.110;2022-10-28T10:09:36;18.20;99.90
28823;DHT22;15961;54.678;9.110;2022-10-28T10:12:08;18.30;99.90
28823;DHT22;15961;54.678;9.110;2022-10-28T10:14:44;18.40;99.90
28823;DHT22;15961;54.678;9.110;2022-10-28T10:17:14;18.50;99.90
28823;DHT22;15961;54.678;9.110;2022-10-28T10:22:30;18.50;99.90
28823;DHT22;15961;54.678;9.110;2022-10-28T10:24:56;18.60;99.90
28823;DHT22;15961;54.678;9.110;2022-10-28T10:27:23;18.50;99.90
28823;DHT22;15961;54.678;9.110;2022-10-28T10:29:51;18.60;99.90
28823;DHT22;15961;54.678;9.110;2022-10-28T10:32:28;18.60;99.90
28823;DHT22;15961;54.678;9.110;2022-10-28T10:37:23;18.80;99.90
28823;DHT22;15961;54.678;9.110;2022-10-28T10:40:25;18.80;99.90
28823;DHT22;15961;54.678;9.110;2022-10-28T10:42:52;18.90;99.90
28823;DHT22;15961;54.678;9.110;2022-10-28T10:45:24;18.90;99.90
28823;DHT22;15961;54.678;9.110;2022-10-28T10:50:32;19.00;99.90
28823;DHT22;15961;54.678;9.110;2022-10-28T10:52:59;19.10;99.90
28823;DHT22;15961;54.678;9.110;2022-10-28T10:55:49;19.20;99.90
28823;DHT22;15961;54.678;9.110;2022-10-28T10:58:17;19.30;99.90
28823;DHT22;15961;54.678;9.110;2022-10-28T11:00:46;19.30;99.90
28823;DHT22;15961;54.678;9.110;2022-10-28T11:03:25;19.50;99.90
28823;DHT22;15961;54.678;9.110;2022-10-28T11:05:55;19.40;99.90
28823;DHT22;15961;54.678;9.110;2022-10-28T11:08:34;19.20;99.90
28823;DHT22;15961;54.678;9.110;2022-10-28T11:13:30;19.10;99.90
28823;DHT22;15961;54.678;9.110;2022-10-28T11:16:01;19.10;99.90
28823;DHT22;15961;54.678;9.110;2022-10-28T11:18:27;19.00;99.90
28823;DHT22;15961;54.678;9.110;2022-10-28T11:26:13;18.90;99.90
28823;DHT22;15961;54.678;9.110;2022-10-28T11:32:04;18.90;99.90
28823;DHT22;15961;54.678;9.110;2022-10-28T11:34:44;18.90;99.90
28823;DHT22;15961;54.678;9.110;2022-10-28T11:37:45;18.90;99.90
28823;DHT22;15961;54.678;9.110;2022-10-28T11:40:42;19.00;99.90
28823;DHT22;15961;54.678;9.110;2022-10-28T11:51:17;19.40;99.90
28823;DHT22;15961;54.678;9.110;2022-10-28T11:56:36;19.30;99.90
28823;DHT22;15961;54.678;9.110;2022-10-28T11:59:25;19.20;99.90
28823;DHT22;15961;54.678;9.110;2022-10-28T12:02:00;19.20;99.90
28823;DHT22;15961;54.678;9.110;2022-10-28T12:05:00;19.20;99.90
28823;DHT22;15961;54.678;9.110;2022-10-28T12:07:37;19.30;99.90
28823;DHT22;15961;54.678;9.110;2022-10-28T12:12:44;19.40;99.90
28823;DHT22;15961;54.678;9.110;2022-10-28T12:15:25;19.40;99.90
28823;DHT22;15961;54.678;9.110;2022-10-28T12:18:06;19.20;99.90
28823;DHT22;15961;54.678;9.110;2022-10-28T12:20:45;19.00;99.90
28823;DHT22;15961;54.678;9.110;2022-10-28T12:23:16;19.10;99.90
28823;DHT22;15961;54.678;9.110;2022-10-28T12:25:44;19.20;99.90
28823;DHT22;15961;54.678;9.110;2022-10-28T12:28:18;19.30;99.90
28823;DHT22;15961;54.678;9.110;2022-10-28T12:30:47;19.40;99.90
28823;DHT22;15961;54.678;9.110;2022-10-28T12:33:34;19.70;99.90
28823;DHT22;15961;54.678;9.110;2022-10-28T12:38:35;19.80;99.90
28823;DHT22;15961;54.678;9.110;2022-10-28T12:41:10;19.80;99.90
28823;DHT22;15961;54.678;9.110;2022-10-28T12:44:24;19.80;99.90
28823;DHT22;15961;54.678;9.110;2022-10-28T12:47:04;19.90;99.90
28823;DHT22;15961;54.678;9.110;2022-10-28T12:49:46;20.00;99.90
28823;DHT22;15961;54.678;9.110;2022-10-28T12:57:44;19.80;99.90
28823;DHT22;15961;54.678;9.110;2022-10-28T13:00:27;19.90;99.90
28823;DHT22;15961;54.678;9.110;2022-10-28T13:05:26;19.60;99.90
28823;DHT22;15961;54.678;9.110;2022-10-28T13:07:57;19.30;99.90
28823;DHT22;15961;54.678;9.110;2022-10-28T13:26:27;19.00;99.90
28823;DHT22;15961;54.678;9.110;2022-10-28T13:28:57;18.80;99.90
28823;DHT22;15961;54.678;9.110;2022-10-28T13:31:41;18.80;99.90
28823;DHT22;15961;54.678;9.110;2022-10-28T13:34:13;18.60;99.90
28823;DHT22;15961;54.678;9.110;2022-10-28T13:36:43;18.50;99.90
28823;DHT22;15961;54.678;9.110;2022-10-28T13:39:55;18.50;99.90
28823;DHT22;15961;54.678;9.110;2022-10-28T13:47:34;18.20;99.90
28823;DHT22;15961;54.678;9.110;2022-10-28T13:52:33;18.00;99.90
28823;DHT22;15961;54.678;9.110;2022-10-28T13:58:05;18.10;99.90
28823;DHT22;15961;54.678;9.110;2022-10-28T14:00:43;18.00;99.90
28823;DHT22;15961;54.678;9.110;2022-10-28T14:08:21;17.80;99.90
28823;DHT22;15961;54.678;9.110;2022-10-28T14:11:13;17.80;99.90
28823;DHT22;15961;54.678;9.110;2022-10-28T14:13:58;17.80;99.90
28823;DHT22;15961;54.678;9.110;2022-10-28T14:16:28;17.70;99.90
28823;DHT22;15961;54.678;9.110;2022-10-28T14:21:59;17.50;99.90
28823;DHT22;15961;54.678;9.110;2022-10-28T14:24:40;17.50;99.90
28823;DHT22;15961;54.678;9.110;2022-10-28T14:29:42;17.50;99.90
28823;DHT22;15961;54.678;9.110;2022-10-28T14:40:36;17.50;99.90
28823;DHT22;15961;54.678;9.110;2022-10-28T14:48:53;17.40;99.90
28823;DHT22;15961;54.678;9.110;2022-10-28T14:51:23;17.40;99.90
28823;DHT22;15961;54.678;9.110;2022-10-28T14:53:50;17.40;99.90
28823;DHT22;15961;54.678;9.110;2022-10-28T14:56:24;17.30;99.90
28823;DHT22;15961;54.678;9.110;2022-10-28T14:58:52;17.30;99.90
28823;DHT22;15961;54.678;9.110;2022-10-28T15:01:54;17.20;99.90
28823;DHT22;15961;54.678;9.110;2022-10-28T15:04:21;17.20;99.90
28823;DHT22;15961;54.678;9.110;2022-10-28T15:06:49;17.10;99.90
28823;DHT22;15961;54.678;9.110;2022-10-28T15:09:22;17.10;99.90
28823;DHT22;15961;54.678;9.110;2022-10-28T15:11:53;17.00;99.90
28823;DHT22;15961;54.678;9.110;2022-10-28T15:14:31;17.00;99.90
28823;DHT22;15961;54.678;9.110;2022-10-28T15:16:57;16.90;99.90
28823;DHT22;15961;54.678;9.110;2022-10-28T15:19:25;16.90;99.90
28823;DHT22;15961;54.678;9.110;2022-10-28T15:22:05;16.90;99.90
28823;DHT22;15961;54.678;9.110;2022-10-28T15:24:31;16.80;99.90
28823;DHT22;15961;54.678;9.110;2022-10-28T15:26:57;16.70;99.90
28823;DHT22;15961;54.678;9.110;2022-10-28T15:29:23;16.70;99.90
28823;DHT22;15961;54.678;9.110;2022-10-28T15:34:33;16.60;99.90
28823;DHT22;15961;54.678;9.110;2022-10-28T15:36:59;16.60;99.90
28823;DHT22;15961;54.678;9.110;2022-10-28T15:39:24;16.50;99.90
28823;DHT22;15961;54.678;9.110;2022-10-28T15:41:50;16.50;99.90
28823;DHT22;15961;54.678;9.110;2022-10-28T15:44:33;16.50;99.90
28823;DHT22;15961;54.678;9.110;2022-10-28T15:47:13;16.40;99.90
28823;DHT22;15961;54.678;9.110;2022-10-28T15:49:40;16.40;99.90
28823;DHT22;15961;54.678;9.110;2022-10-28T15:52:26;16.50;99.90
28823;DHT22;15961;54.678;9.110;2022-10-28T15:54:59;16.50;99.90
28823;DHT22;15961;54.678;9.110;2022-10-28T15:57:29;16.50;99.90
28823;DHT22;15961;54.678;9.110;2022-10-28T16:00:31;16.40;99.90
28823;DHT22;15961;54.678;9.110;2022-10-28T16:05:44;16.40;99.90
28823;DHT22;15961;54.678;9.110;2022-10-28T16:08:39;16.40;99.90
28823;DHT22;15961;54.678;9.110;2022-10-28T16:11:12;16.40;99.90
28823;DHT22;15961;54.678;9.110;2022-10-28T16:13:46;16.40;99.90
28823;DHT22;15961;54.678;9.110;2022-10-28T16:16:15;16.40;99.90
28823;DHT22;15961;54.678;9.110;2022-10-28T16:18:52;16.40;99.90
28823;DHT22;15961;54.678;9.110;2022-10-28T16:21:21;16.40;99.90
28823;DHT22;15961;54.678;9.110;2022-10-28T16:23:51;16.40;99.90
28823;DHT22;15961;54.678;9.110;2022-10-28T16:26:24;16.40;99.90
28823;DHT22;15961;54.678;9.110;2022-10-28T16:28:49;16.40;99.90
28823;DHT22;15961;54.678;9.110;2022-10-28T16:31:16;16.40;99.90
28823;DHT22;15961;54.678;9.110;2022-10-28T16:33:42;16.40;99.90
28823;DHT22;15961;54.678;9.110;2022-10-28T16:36:09;16.50;99.90
28823;DHT22;15961;54.678;9.110;2022-10-28T16:38:35;16.40;99.90
28823;DHT22;15961;54.678;9.110;2022-10-28T16:41:01;16.50;99.90
28823;DHT22;15961;54.678;9.110;2022-10-28T16:43:28;16.60;99.90
28823;DHT22;15961;54.678;9.110;2022-10-28T16:45:56;16.60;99.90
28823;DHT22;15961;54.678;9.110;2022-10-28T16:48:24;16.60;99.90
28823;DHT22;15961;54.678;9.110;2022-10-28T16:50:56;16.60;99.90
28823;DHT22;15961;54.678;9.110;2022-10-28T16:53:22;16.60;99.90
28823;DHT22;15961;54.678;9.110;2022-10-28T16:55:48;16.50;99.90
28823;DHT22;15961;54.678;9.110;2022-10-28T16:58:13;16.60;99.90
28823;DHT22;15961;54.678;9.110;2022-10-28T17:00:40;16.50;99.90
28823;DHT22;15961;54.678;9.110;2022-10-28T17:03:08;16.50;99.90
28823;DHT22;15961;54.678;9.110;2022-10-28T17:05:35;16.50;99.90
28823;DHT22;15961;54.678;9.110;2022-10-28T17:08:00;16.50;99.90
28823;DHT22;15961;54.678;9.110;2022-10-28T17:10:26;16.50;99.90
28823;DHT22;15961;54.678;9.110;2022-10-28T17:12:52;16.40;99.90
28823;DHT22;15961;54.678;9.110;2022-10-28T17:15:18;16.30;99.90
28823;DHT22;15961;54.678;9.110;2022-10-28T17:17:46;16.30;99.90
28823;DHT22;15961;54.678;9.110;2022-10-28T17:20:12;16.20;99.90
28823;DHT22;15961;54.678;9.110;2022-10-28T17:22:38;16.10;99.90
28823;DHT22;15961;54.678;9.110;2022-10-28T17:25:05;16.10;99.90
28823;DHT22;15961;54.678;9.110;2022-10-28T17:27:31;16.00;99.90
28823;DHT22;15961;54.678;9.110;2022-10-28T17:29:57;16.00;99.90
28823;DHT22;15961;54.678;9.110;2022-10-28T17:32:22;16.10;99.90
28823;DHT22;15961;54.678;9.110;2022-10-28T17:34:48;16.10;99.90
28823;DHT22;15961;54.678;9.110;2022-10-28T17:37:14;16.20;99.90
28823;DHT22;15961;54.678;9.110;2022-10-28T17:39:39;16.30;99.90
28823;DHT22;15961;54.678;9.110;2022-10-28T17:42:07;16.30;99.90
28823;DHT22;15961;54.678;9.110;2022-10-28T17:44:32;16.40;99.90
28823;DHT22;15961;54.678;9.110;2022-10-28T17:46:58;16.50;99.90
28823;DHT22;15961;54.678;9.110;2022-10-28T17:49:23;16.40;99.90
28823;DHT22;15961;54.678;9.110;2022-10-28T17:51:50;16.40;99.90
28823;DHT22;15961;54.678;9.110;2022-10-28T17:54:16;16.30;99.90
28823;DHT22;15961;54.678;9.110;2022-10-28T17:56:41;16.30;99.90
28823;DHT22;15961;54.678;9.110;2022-10-28T17:59:07;16.40;99.90
28823;DHT22;15961;54.678;9.110;2022-10-28T18:01:34;16.50;99.90
28823;DHT22;15961;54.678;9.110;2022-10-28T18:04:00;16.70;99.90